createdAt,value
2018-07-19T00:00:29.183Z,5.57
2018-07-19T00:02:56.491Z,5.30
2018-07-19T00:05:23.868Z,6.57
2018-07-19T00:07:51.198Z,6.17
2018-07-19T00:10:18.591Z,6.07
2018-07-19T00:12:45.942Z,5.47
2018-07-19T00:15:13.271Z,5.53
2018-07-19T00:17:40.760Z,6.17
2018-07-19T00:20:08.287Z,5.30
2018-07-19T00:22:35.773Z,5.53
2018-07-19T00:25:03.094Z,5.53
2018-07-19T00:27:30.571Z,5.77
2018-07-19T00:29:57.880Z,6.13
2018-07-19T00:32:25.391Z,6.03
2018-07-19T00:34:52.736Z,6.20
2018-07-19T00:37:20.320Z,6.07
2018-07-19T00:39:47.744Z,6.30
2018-07-19T00:42:15.124Z,5.80
2018-07-19T00:44:42.439Z,5.80
2018-07-19T00:47:09.810Z,6.20
2018-07-19T00:49:37.183Z,5.93
2018-07-19T00:52:04.695Z,5.93
2018-07-19T00:54:32.187Z,5.83
2018-07-19T00:56:59.651Z,6.17
2018-07-19T00:59:27.010Z,5.43
2018-07-19T01:01:54.534Z,6.07
2018-07-19T01:04:21.915Z,6.20
2018-07-19T01:06:49.244Z,6.80
2018-07-19T01:09:16.606Z,6.10
2018-07-19T01:11:43.967Z,6.37
2018-07-19T01:14:11.307Z,6.20
2018-07-19T01:16:38.682Z,6.50
2018-07-19T01:19:06.199Z,6.20
2018-07-19T01:21:33.767Z,5.80
2018-07-19T01:24:01.096Z,6.17
2018-07-19T01:26:28.529Z,6.40
2018-07-19T01:28:55.850Z,7.37
2018-07-19T01:31:23.190Z,7.00
2018-07-19T01:33:50.690Z,6.40
2018-07-19T01:36:18.032Z,7.37
2018-07-19T01:38:45.489Z,6.97
2018-07-19T01:41:18.484Z,6.53
2018-07-19T01:43:45.928Z,7.40
2018-07-19T01:46:13.366Z,7.20
2018-07-19T01:48:40.686Z,6.93
2018-07-19T01:51:08.047Z,6.60
2018-07-19T01:53:35.542Z,6.63
2018-07-19T01:56:02.860Z,7.00
2018-07-19T01:58:30.159Z,6.70
2018-07-19T02:00:57.716Z,8.00
2018-07-19T02:03:25.051Z,7.30
2018-07-19T02:05:52.475Z,7.00
2018-07-19T02:08:20.055Z,7.10
2018-07-19T02:10:47.443Z,8.47
2018-07-19T02:13:14.786Z,7.13
2018-07-19T02:15:42.231Z,7.70
2018-07-19T02:18:09.566Z,7.60
2018-07-19T02:20:36.941Z,8.27
2018-07-19T02:23:04.238Z,7.80
2018-07-19T02:25:31.554Z,7.80
2018-07-19T02:27:58.932Z,8.10
2018-07-19T02:30:26.278Z,7.90
2018-07-19T02:32:53.607Z,7.70
2018-07-19T02:35:21.151Z,7.60
2018-07-19T02:37:48.562Z,7.03
2018-07-19T02:40:15.896Z,8.13
2018-07-19T02:42:43.225Z,7.30
2018-07-19T02:45:10.583Z,7.10
2018-07-19T02:47:37.963Z,7.40
2018-07-19T02:50:05.290Z,8.50
2018-07-19T02:52:32.651Z,8.13
2018-07-19T02:55:00.020Z,7.77
2018-07-19T02:57:27.391Z,7.13
2018-07-19T02:59:54.712Z,7.77
2018-07-19T03:02:22.092Z,9.23
2018-07-19T03:04:49.435Z,8.30
2018-07-19T03:07:16.783Z,8.50
2018-07-19T03:09:44.255Z,7.60
2018-07-19T03:12:11.577Z,7.40
2018-07-19T03:14:38.991Z,8.07
2018-07-19T03:17:06.299Z,7.40
2018-07-19T03:19:33.671Z,7.90
2018-07-19T03:22:01.011Z,9.33
2018-07-19T03:24:28.380Z,7.67
2018-07-19T03:26:55.846Z,7.90
2018-07-19T03:29:23.179Z,8.80
2018-07-19T03:31:50.623Z,8.10
2018-07-19T03:34:18.095Z,8.23
2018-07-19T03:36:45.631Z,7.33
2018-07-19T03:39:13.135Z,7.17
2018-07-19T03:41:40.655Z,8.77
2018-07-19T03:44:08.062Z,8.87
2018-07-19T03:46:35.707Z,8.20
2018-07-19T03:49:03.032Z,8.63
2018-07-19T03:51:30.382Z,7.80
2018-07-19T03:53:57.944Z,9.10
2018-07-19T03:56:25.276Z,9.17
2018-07-19T03:58:52.583Z,7.30
2018-07-19T04:01:20.228Z,8.27
2018-07-19T04:03:47.550Z,7.83
2018-07-19T04:06:14.930Z,8.60
2018-07-19T04:08:42.288Z,7.83
2018-07-19T04:11:09.711Z,8.30
2018-07-19T04:13:37.427Z,8.90
2018-07-19T04:16:04.827Z,8.77
2018-07-19T04:18:32.330Z,8.67
2018-07-19T04:20:59.993Z,9.20
2018-07-19T04:23:27.302Z,8.73
2018-07-19T04:25:54.735Z,7.60
2018-07-19T04:28:22.089Z,9.00
2018-07-19T04:30:49.415Z,7.97
2018-07-19T04:33:16.848Z,8.03
2018-07-19T04:35:44.191Z,8.07
2018-07-19T04:38:11.656Z,8.20
2018-07-19T04:40:39.012Z,6.90
2018-07-19T04:43:06.488Z,7.83
2018-07-19T04:45:34.080Z,8.87
2018-07-19T04:48:01.482Z,8.20
2018-07-19T04:50:28.931Z,8.63
2018-07-19T04:52:56.282Z,8.97
2018-07-19T04:55:23.646Z,8.50
2018-07-19T04:57:51.008Z,8.63
2018-07-19T05:00:18.463Z,7.37
2018-07-19T05:02:45.915Z,8.00
2018-07-19T05:05:13.222Z,8.40
2018-07-19T05:07:40.555Z,8.33
2018-07-19T05:10:08.825Z,8.07
2018-07-19T05:12:36.368Z,7.17
2018-07-19T05:15:03.707Z,7.57
2018-07-19T05:17:31.095Z,6.73
2018-07-19T05:19:58.404Z,7.20
2018-07-19T05:22:25.754Z,7.53
2018-07-19T05:24:53.113Z,6.50
2018-07-19T05:27:20.455Z,7.47
2018-07-19T05:29:47.835Z,7.90
2018-07-19T05:32:15.139Z,7.80
2018-07-19T05:34:42.520Z,7.53
2018-07-19T05:37:09.887Z,7.40
2018-07-19T05:39:37.380Z,6.50
2018-07-19T05:42:04.779Z,6.43
2018-07-19T05:44:32.064Z,6.97
2018-07-19T05:46:59.442Z,6.30
2018-07-19T05:49:26.759Z,7.13
2018-07-19T05:51:54.122Z,7.00
2018-07-19T05:54:21.459Z,6.40
2018-07-19T05:56:48.779Z,6.70
2018-07-19T05:59:16.169Z,6.03
2018-07-19T06:01:43.492Z,5.53
2018-07-19T06:04:10.804Z,7.80
2018-07-19T06:06:38.364Z,5.87
2018-07-19T06:09:07.053Z,5.60
2018-07-19T06:11:34.480Z,5.90
2018-07-19T06:14:01.855Z,5.57
2018-07-19T06:16:29.143Z,4.60
2018-07-19T06:18:56.472Z,6.00
2018-07-19T06:21:23.854Z,4.80
2018-07-19T06:23:51.177Z,5.33
2018-07-19T06:26:18.603Z,5.70
2018-07-19T06:28:45.927Z,4.93
2018-07-19T06:31:13.295Z,6.47
2018-07-19T06:33:40.622Z,4.83
2018-07-19T06:36:08.024Z,4.90
2018-07-19T06:38:35.406Z,5.07
2018-07-19T06:41:02.819Z,5.20
2018-07-19T06:43:30.191Z,5.27
2018-07-19T06:45:57.511Z,5.63
2018-07-19T06:48:24.907Z,5.23
2018-07-19T06:50:52.259Z,4.93
2018-07-19T06:53:19.617Z,6.00
2018-07-19T06:55:46.992Z,6.43
2018-07-19T06:58:14.355Z,5.90
2018-07-19T07:00:41.675Z,5.27
2018-07-19T07:03:09.149Z,4.87
2018-07-19T07:05:36.478Z,5.10
2018-07-19T07:08:03.856Z,4.47
2018-07-19T07:10:31.246Z,5.03
2018-07-19T07:12:58.585Z,4.27
2018-07-19T07:15:25.976Z,4.10
2018-07-19T07:17:53.387Z,4.60
2018-07-19T07:20:20.907Z,4.10
2018-07-19T07:22:48.231Z,3.90
2018-07-19T07:25:15.587Z,4.17
2018-07-19T07:27:43.102Z,3.70
2018-07-19T07:30:10.587Z,4.23
2018-07-19T07:32:38.304Z,4.20
2018-07-19T07:35:06.124Z,4.07
2018-07-19T07:37:33.492Z,4.30
2018-07-19T07:40:00.993Z,3.60
2018-07-19T07:42:28.358Z,3.23
2018-07-19T07:44:55.695Z,3.17
2018-07-19T07:47:23.275Z,3.83
2018-07-19T07:49:50.603Z,3.70
2018-07-19T07:52:18.067Z,4.37
2018-07-19T07:54:45.658Z,3.57
2018-07-19T07:57:13.214Z,3.80
2018-07-19T07:59:40.538Z,5.53
2018-07-19T08:02:07.903Z,4.27
2018-07-19T08:04:35.206Z,4.23
2018-07-19T08:07:02.578Z,3.57
2018-07-19T08:09:29.979Z,3.67
2018-07-19T08:11:57.398Z,3.90
2018-07-19T08:14:24.947Z,3.33
2018-07-19T08:16:52.339Z,4.17
2018-07-19T08:19:19.691Z,4.20
2018-07-19T08:21:47.095Z,3.33
2018-07-19T08:24:14.404Z,4.17
2018-07-19T08:26:41.922Z,3.97
2018-07-19T08:29:09.445Z,4.17
2018-07-19T08:31:36.789Z,4.33
2018-07-19T08:34:04.150Z,4.00
2018-07-19T08:36:31.686Z,3.80
2018-07-19T08:38:59.134Z,3.77
2018-07-19T08:41:26.613Z,3.47
2018-07-19T08:43:54.026Z,3.63
2018-07-19T08:46:21.403Z,4.40
2018-07-19T08:48:48.860Z,3.80
2018-07-19T08:51:16.291Z,3.87
2018-07-19T08:53:43.670Z,4.27
2018-07-19T08:56:11.035Z,3.53
2018-07-19T08:58:38.386Z,3.97
2018-07-19T09:01:05.972Z,3.67
2018-07-19T09:03:33.518Z,4.80
2018-07-19T09:06:00.952Z,4.53
2018-07-19T09:08:28.426Z,4.30
2018-07-19T09:10:55.786Z,4.00
2018-07-19T09:13:23.319Z,4.53
2018-07-19T09:15:50.751Z,4.17
2018-07-19T09:18:18.170Z,3.93
2018-07-19T09:20:45.498Z,4.73
2018-07-19T09:23:12.969Z,4.40
2018-07-19T09:25:40.439Z,4.90
2018-07-19T09:28:08.045Z,4.10
2018-07-19T09:30:35.434Z,4.20
2018-07-19T09:33:02.748Z,4.07
2018-07-19T09:35:30.096Z,4.20
2018-07-19T09:37:57.591Z,3.87
2018-07-19T09:40:25.083Z,4.20
2018-07-19T09:42:52.548Z,4.50
2018-07-19T09:45:19.889Z,3.90
2018-07-19T09:47:47.528Z,4.50
2018-07-19T09:50:14.964Z,4.00
2018-07-19T09:52:42.336Z,3.17
2018-07-19T09:55:09.675Z,3.73
2018-07-19T09:57:37.162Z,3.83
2018-07-19T10:00:04.803Z,4.07
2018-07-19T10:02:32.124Z,2.97
2018-07-19T10:04:59.595Z,3.00
2018-07-19T10:07:26.941Z,2.73
2018-07-19T10:09:54.446Z,2.83
2018-07-19T10:12:21.768Z,4.60
2018-07-19T10:14:49.255Z,2.87
2018-07-19T10:17:16.615Z,2.70
2018-07-19T10:19:43.927Z,2.70
2018-07-19T10:22:11.719Z,2.53
2018-07-19T10:24:39.011Z,3.03
2018-07-19T10:27:06.407Z,3.07
2018-07-19T10:29:33.889Z,2.73
2018-07-19T10:32:01.458Z,3.00
2018-07-19T10:34:28.807Z,2.90
2018-07-19T10:36:56.259Z,3.10
2018-07-19T10:39:23.576Z,2.90
2018-07-19T10:41:51.025Z,3.00
2018-07-19T10:44:18.467Z,3.80
2018-07-19T10:46:45.939Z,3.07
2018-07-19T10:49:13.287Z,3.30
2018-07-19T10:51:40.611Z,3.43
2018-07-19T10:54:08.108Z,3.10
2018-07-19T10:56:35.550Z,3.37
2018-07-19T10:59:03.056Z,3.37
2018-07-19T11:01:30.757Z,3.57
2018-07-19T11:03:58.092Z,4.40
2018-07-19T11:06:25.420Z,3.70
2018-07-19T11:08:52.863Z,3.10
2018-07-19T11:11:20.224Z,3.40
2018-07-19T11:13:47.675Z,3.53
2018-07-19T11:16:15.024Z,3.90
2018-07-19T11:18:42.496Z,3.70
2018-07-19T11:21:09.976Z,3.47
2018-07-19T11:23:37.277Z,3.33
2018-07-19T11:26:04.652Z,3.10
2018-07-19T11:28:31.984Z,3.30
2018-07-19T11:30:59.345Z,3.50
2018-07-19T11:33:26.703Z,3.87
2018-07-19T11:35:54.287Z,3.70
2018-07-19T11:38:21.615Z,3.53
2018-07-19T11:40:48.964Z,3.20
2018-07-19T11:43:16.433Z,4.17
2018-07-19T11:45:43.779Z,3.33
2018-07-19T11:48:11.099Z,3.33
2018-07-19T11:50:38.704Z,3.50
2018-07-19T11:53:06.088Z,3.10
2018-07-19T11:55:33.535Z,3.42
2018-07-19T11:58:01.114Z,3.87
2018-07-19T12:00:28.607Z,2.57
2018-07-19T12:02:55.995Z,3.60
2018-07-19T12:05:23.378Z,3.43
2018-07-19T12:07:50.752Z,3.90
2018-07-19T12:10:18.152Z,4.10
2018-07-19T12:12:45.510Z,3.83
2018-07-19T12:15:13.355Z,3.47
2018-07-19T12:17:40.667Z,3.57
2018-07-19T12:20:08.612Z,3.93
2018-07-19T12:22:36.264Z,3.00
2018-07-19T12:25:04.136Z,2.90
2018-07-19T12:27:31.485Z,3.00
2018-07-19T12:29:59.051Z,3.23
2018-07-19T12:32:26.673Z,3.47
2018-07-19T12:34:54.035Z,4.23
2018-07-19T12:37:21.424Z,3.13
2018-07-19T12:39:48.964Z,3.50
2018-07-19T12:42:16.431Z,4.77
2018-07-19T12:44:43.746Z,4.37
2018-07-19T12:47:11.342Z,4.57
2018-07-19T12:49:38.841Z,4.27
2018-07-19T12:52:06.391Z,3.87
2018-07-19T12:54:33.983Z,4.67
2018-07-19T12:57:01.509Z,4.17
2018-07-19T12:59:28.838Z,4.93
2018-07-19T13:01:56.182Z,4.20
2018-07-19T13:04:23.503Z,4.10
2018-07-19T13:06:50.942Z,4.67
2018-07-19T13:09:18.258Z,5.10
2018-07-19T13:11:45.939Z,4.90
2018-07-19T13:14:14.243Z,4.23
2018-07-19T13:16:41.763Z,4.03
2018-07-19T13:19:09.103Z,4.53
2018-07-19T13:21:36.441Z,4.33
2018-07-19T13:24:03.940Z,4.93
2018-07-19T13:26:31.566Z,5.23
2018-07-19T13:28:59.006Z,4.10
2018-07-19T13:31:26.481Z,5.50
2018-07-19T13:33:53.875Z,5.20
2018-07-19T13:36:21.459Z,4.53
2018-07-19T13:38:48.789Z,4.77
2018-07-19T13:41:16.317Z,4.70
2018-07-19T13:43:44.081Z,4.40
2018-07-19T13:46:12.011Z,4.43
2018-07-19T13:48:39.567Z,5.53
2018-07-19T13:51:07.029Z,4.20
2018-07-19T13:53:40.809Z,4.00
2018-07-19T13:56:08.875Z,5.03
2018-07-19T13:58:37.064Z,4.00
2018-07-19T14:01:04.464Z,4.60
2018-07-19T14:03:32.140Z,4.50
2018-07-19T14:05:59.986Z,4.57
2018-07-19T14:08:27.293Z,3.80
2018-07-19T14:10:55.203Z,4.60
2018-07-19T14:13:22.676Z,4.50
2018-07-19T14:15:50.595Z,4.57
2018-07-19T14:18:18.188Z,5.00
2018-07-19T14:20:45.515Z,3.90
2018-07-19T14:23:13.123Z,4.20
2018-07-19T14:25:40.963Z,4.30
2018-07-19T14:28:08.319Z,4.63
2018-07-19T14:30:35.959Z,4.60
2018-07-19T14:33:03.357Z,4.73
2018-07-19T14:35:30.705Z,4.60
2018-07-19T14:37:58.070Z,5.23
2018-07-19T14:40:25.776Z,4.90
2018-07-19T14:42:53.441Z,5.13
2018-07-19T14:45:20.952Z,5.00
2018-07-19T14:47:48.292Z,4.50
2018-07-19T14:50:15.744Z,5.07
2018-07-19T14:52:43.386Z,4.73
2018-07-19T14:55:10.735Z,5.00
2018-07-19T14:57:38.092Z,5.50
2018-07-19T15:00:05.994Z,4.60
2018-07-19T15:02:33.307Z,5.67
2018-07-19T15:05:00.902Z,4.83
2018-07-19T15:07:28.590Z,5.27
2018-07-19T15:09:55.924Z,4.80
2018-07-19T15:12:23.358Z,5.20
2018-07-19T15:14:50.724Z,4.80
2018-07-19T15:17:18.138Z,4.97
2018-07-19T15:19:45.733Z,4.70
2018-07-19T15:22:13.332Z,5.00
2018-07-19T15:24:40.838Z,5.10
2018-07-19T15:27:08.319Z,4.23
2018-07-19T15:29:35.619Z,4.93
2018-07-19T15:32:03.080Z,5.60
2018-07-19T15:34:30.455Z,4.70
2018-07-19T15:36:57.842Z,4.67
2018-07-19T15:39:25.182Z,5.40
2018-07-19T15:41:52.534Z,4.80
2018-07-19T15:44:19.885Z,5.40
2018-07-19T15:46:47.209Z,4.97
2018-07-19T15:49:14.849Z,4.67
2018-07-19T15:51:42.171Z,5.07
2018-07-19T15:54:09.692Z,5.30
2018-07-19T15:56:37.094Z,4.17
2018-07-19T15:59:04.644Z,6.00
2018-07-19T16:01:32.009Z,5.00
2018-07-19T16:03:59.456Z,4.93
2018-07-19T16:06:26.794Z,4.80
2018-07-19T16:08:54.219Z,4.87
2018-07-19T16:11:21.816Z,4.60
2018-07-19T16:13:49.675Z,4.87
2018-07-19T16:16:17.099Z,5.23
2018-07-19T16:18:44.583Z,5.00
2018-07-19T16:21:11.940Z,5.10
2018-07-19T16:23:39.256Z,5.40
2018-07-19T16:26:06.763Z,4.87
2018-07-19T16:28:34.272Z,4.97
2018-07-19T16:31:01.681Z,5.00
2018-07-19T16:33:29.023Z,5.13
2018-07-19T16:35:56.462Z,5.20
2018-07-19T16:38:24.039Z,5.47
2018-07-19T16:40:51.509Z,5.07
2018-07-19T16:43:18.915Z,4.80
2018-07-19T16:45:46.928Z,5.67
2018-07-19T16:48:14.388Z,5.37
2018-07-19T16:50:41.712Z,6.73
2018-07-19T16:53:09.028Z,5.63
2018-07-19T16:55:36.549Z,5.60
2018-07-19T16:58:04.175Z,4.90
2018-07-19T17:00:31.544Z,5.40
2018-07-19T17:02:58.880Z,4.90
2018-07-19T17:05:26.225Z,5.23
2018-07-19T17:07:53.836Z,5.60
2018-07-19T17:10:21.172Z,5.10
2018-07-19T17:12:48.660Z,4.23
2018-07-19T17:15:16.264Z,5.00
2018-07-19T17:17:43.658Z,4.80
2018-07-19T17:20:11.129Z,4.97
2018-07-19T17:22:38.451Z,5.50
2018-07-19T17:25:06.029Z,5.60
2018-07-19T17:27:33.578Z,4.77
2018-07-19T17:30:00.916Z,5.90
2018-07-19T17:32:28.422Z,5.27
2018-07-19T17:34:55.838Z,5.00
2018-07-19T17:37:23.259Z,5.77
2018-07-19T17:39:50.568Z,4.80
2018-07-19T17:42:18.143Z,5.40
2018-07-19T17:44:45.652Z,5.03
2018-07-19T17:47:13.015Z,5.00
2018-07-19T17:49:40.488Z,4.87
2018-07-19T17:52:08.450Z,4.80
2018-07-19T17:54:36.113Z,4.87
2018-07-19T17:57:03.551Z,4.87
2018-07-19T17:59:31.083Z,5.70
2018-07-19T18:01:58.791Z,4.93
2018-07-19T18:04:26.395Z,5.30
2018-07-19T18:06:53.808Z,5.37
2018-07-19T18:09:21.180Z,4.83
2018-07-19T18:11:48.507Z,5.00
2018-07-19T18:14:15.862Z,5.10
2018-07-19T18:19:11.191Z,4.83
2018-07-19T18:21:38.564Z,3.90
2018-07-19T18:24:06.031Z,3.40
2018-07-19T18:26:33.458Z,4.47
2018-07-19T18:29:00.895Z,4.13
2018-07-19T18:31:28.393Z,4.60
2018-07-19T18:33:55.723Z,4.50
2018-07-19T18:36:23.503Z,4.77
2018-07-19T18:38:50.846Z,4.37
2018-07-19T18:41:18.220Z,4.90
2018-07-19T18:43:45.575Z,4.77
2018-07-19T18:46:12.910Z,4.83
2018-07-19T18:48:40.272Z,4.50
2018-07-19T18:51:07.746Z,7.80
2018-07-19T18:53:35.144Z,4.10
2018-07-19T18:56:02.542Z,4.27
2018-07-19T18:58:30.090Z,4.53
2018-07-19T19:00:57.507Z,4.00
2018-07-19T19:03:24.998Z,5.50
2018-07-19T19:05:52.367Z,5.50
2018-07-19T19:08:19.737Z,5.10
2018-07-19T19:10:47.116Z,4.33
2018-07-19T19:13:15.011Z,6.67
2018-07-19T19:15:50.718Z,5.20
2018-07-19T19:18:39.348Z,4.43
2018-07-19T19:21:13.555Z,4.80
2018-07-19T19:23:40.947Z,4.67
2018-07-19T19:26:08.345Z,5.00
2018-07-19T19:28:35.819Z,4.73
2018-07-19T19:31:03.124Z,5.60
2018-07-19T19:41:44.223Z,5.40
2018-07-19T19:44:12.264Z,5.50
2018-07-19T19:46:39.637Z,5.60
2018-07-19T19:49:07.015Z,5.63
2018-07-19T19:51:34.371Z,5.33
2018-07-19T19:54:01.965Z,4.87
2018-07-19T19:56:29.452Z,5.70
2018-07-19T19:58:56.937Z,5.30
2018-07-19T20:01:24.589Z,4.90
2018-07-19T20:03:52.048Z,6.33
2018-07-19T20:06:19.502Z,6.10
2018-07-19T20:08:46.951Z,5.03
2018-07-19T20:11:14.508Z,5.83
2018-07-19T20:13:41.913Z,7.20
2018-07-19T20:16:09.751Z,5.27
2018-07-19T20:18:37.367Z,5.20
2018-07-19T20:21:04.717Z,4.57
2018-07-19T20:23:32.134Z,4.87
2018-07-19T20:25:59.616Z,4.70
2018-07-19T20:28:26.969Z,4.80
2018-07-19T20:30:54.364Z,4.77
2018-07-19T20:33:21.896Z,4.47
2018-07-19T20:35:49.588Z,4.73
2018-07-19T20:38:17.154Z,5.40
2018-07-19T20:40:44.689Z,5.10
2018-07-19T20:43:12.272Z,4.73
2018-07-19T20:45:39.667Z,4.43
2018-07-19T20:48:07.129Z,4.60
2018-07-19T20:50:34.537Z,4.10
2018-07-19T20:53:02.067Z,4.63
2018-07-19T20:55:29.622Z,4.77
2018-07-19T20:57:57.104Z,4.70
2018-07-19T21:00:24.541Z,4.03
2018-07-19T21:02:51.992Z,4.13
2018-07-19T21:05:19.413Z,4.60
2018-07-19T21:07:47.012Z,4.20
2018-07-19T21:10:14.762Z,4.57
2018-07-19T21:12:42.248Z,4.37
2018-07-19T21:15:09.639Z,4.10
2018-07-19T21:17:37.039Z,4.03
2018-07-19T21:20:04.871Z,4.57
2018-07-19T21:22:32.199Z,3.83
2018-07-19T21:24:59.736Z,4.73
2018-07-19T21:27:27.153Z,4.60
2018-07-19T21:29:54.636Z,4.90
2018-07-19T21:32:22.015Z,4.20
2018-07-19T21:34:49.481Z,3.77
2018-07-19T21:37:16.949Z,4.10
2018-07-19T21:39:44.743Z,4.27
2018-07-19T21:42:12.216Z,4.03
2018-07-19T21:44:39.587Z,4.57
2018-07-19T21:47:07.072Z,4.63
2018-07-19T21:49:34.377Z,4.20
2018-07-19T21:52:01.727Z,4.03
2018-07-19T21:54:29.068Z,4.87
2018-07-19T21:56:56.448Z,4.47
2018-07-19T21:59:23.860Z,3.73
2018-07-19T22:01:51.179Z,3.50
2018-07-19T22:04:18.563Z,4.07
2018-07-19T22:06:46.267Z,3.40
2018-07-19T22:09:14.149Z,3.10
2018-07-19T22:11:41.617Z,3.10
2018-07-19T22:14:09.005Z,4.10
2018-07-19T22:16:37.631Z,3.37
2018-07-19T22:19:05.211Z,3.17
2018-07-19T22:21:32.560Z,3.13
2018-07-19T22:24:00.309Z,2.87
2018-07-19T22:26:27.847Z,3.23
2018-07-19T22:28:55.262Z,3.43
2018-07-19T22:31:22.585Z,2.77
2018-07-19T22:33:50.562Z,3.10
2018-07-19T22:36:18.081Z,2.50
2018-07-19T22:38:45.620Z,2.93
2018-07-19T22:41:13.027Z,2.37
2018-07-19T22:43:40.358Z,2.30
2018-07-19T22:46:07.741Z,3.03
2018-07-19T22:48:35.118Z,3.00
2018-07-19T22:51:02.731Z,2.67
2018-07-19T22:53:30.061Z,3.00
2018-07-19T22:55:57.395Z,3.10
2018-07-19T22:58:24.893Z,2.70
2018-07-19T23:00:52.242Z,3.17
2018-07-19T23:03:19.642Z,2.90
2018-07-19T23:05:47.012Z,2.87
2018-07-19T23:08:14.335Z,3.53
2018-07-19T23:10:41.621Z,2.90
2018-07-19T23:13:09.026Z,3.07
2018-07-19T23:15:36.363Z,2.80
2018-07-19T23:18:03.846Z,2.80
2018-07-19T23:20:31.140Z,2.87
2018-07-19T23:22:59.258Z,3.40
2018-07-19T23:25:26.564Z,3.00
2018-07-19T23:27:54.635Z,3.60
2018-07-19T23:30:24.215Z,2.80
2018-07-19T23:32:51.588Z,3.60
2018-07-19T23:35:19.646Z,3.47
2018-07-19T23:37:49.251Z,3.07
2018-07-19T23:40:20.014Z,2.90
2018-07-19T23:42:51.239Z,3.70
2018-07-19T23:45:24.735Z,3.17
2018-07-19T23:47:52.737Z,3.97
2018-07-19T23:50:20.305Z,3.53
2018-07-19T23:52:47.775Z,3.40
2018-07-19T23:55:15.109Z,3.43
2018-07-19T23:57:42.411Z,3.30
